createdAt,value
2018-12-19T00:01:58.163Z,70.10
2018-12-19T00:04:30.425Z,70.27
2018-12-19T00:07:02.701Z,71.73
2018-12-19T00:09:32.753Z,74.77
2018-12-19T00:12:03.144Z,71.43
2018-12-19T00:14:33.766Z,73.10
2018-12-19T00:17:06.486Z,73.27
2018-12-19T00:19:37.002Z,72.90
2018-12-19T00:22:07.224Z,73.33
2018-12-19T00:24:37.844Z,71.73
2018-12-19T00:27:10.229Z,76.47
2018-12-19T00:29:41.870Z,72.83
2018-12-19T00:32:15.299Z,73.60
2018-12-19T00:34:47.836Z,73.30
2018-12-19T00:37:18.345Z,74.00
2018-12-19T00:39:49.732Z,72.87
2018-12-19T00:42:20.811Z,71.73
2018-12-19T00:44:50.805Z,72.00
2018-12-19T00:47:20.875Z,74.37
2018-12-19T00:49:51.202Z,73.40
2018-12-19T00:52:21.719Z,75.00
2018-12-19T00:54:51.933Z,74.90
2018-12-19T00:57:22.154Z,75.30
2018-12-19T00:59:52.312Z,71.57
2018-12-19T01:02:22.487Z,73.97
2018-12-19T01:04:52.656Z,70.97
2018-12-19T01:07:23.147Z,71.33
2018-12-19T01:09:53.567Z,70.77
2018-12-19T01:12:23.631Z,73.57
2018-12-19T01:14:55.049Z,72.40
2018-12-19T01:17:25.409Z,70.50
2018-12-19T01:19:55.713Z,67.90
2018-12-19T01:22:26.024Z,71.23
2018-12-19T01:24:56.230Z,70.03
2018-12-19T01:27:26.650Z,69.53
2018-12-19T01:29:56.764Z,70.57
2018-12-19T01:32:27.656Z,71.90
2018-12-19T01:34:57.753Z,72.67
2018-12-19T01:37:27.697Z,69.80
2018-12-19T01:39:57.792Z,72.77
2018-12-19T01:42:27.885Z,68.80
2018-12-19T01:44:57.903Z,70.20
2018-12-19T01:47:28.013Z,69.50
2018-12-19T01:49:58.655Z,69.97
2018-12-19T01:52:28.781Z,69.93
2018-12-19T01:54:58.981Z,68.13
2018-12-19T01:57:30.021Z,71.33
2018-12-19T02:00:00.447Z,69.83
2018-12-19T02:02:37.810Z,71.53
2018-12-19T02:05:09.129Z,70.37
2018-12-19T02:07:40.272Z,71.83
2018-12-19T02:10:10.554Z,71.63
2018-12-19T02:12:43.120Z,72.53
2018-12-19T02:15:13.864Z,65.83
2018-12-19T02:17:44.107Z,72.30
2018-12-19T02:20:15.474Z,73.43
2018-12-19T02:22:46.067Z,70.63
2018-12-19T02:25:17.516Z,71.63
2018-12-19T02:27:47.656Z,72.40
2018-12-19T02:30:18.001Z,72.93
2018-12-19T02:32:48.043Z,72.80
2018-12-19T02:35:18.083Z,74.00
2018-12-19T02:37:48.316Z,72.77
2018-12-19T02:40:19.049Z,75.87
2018-12-19T02:43:07.729Z,76.10
2018-12-19T02:45:52.860Z,76.73
2018-12-19T02:48:23.333Z,78.07
2018-12-19T02:50:54.657Z,74.10
2018-12-19T02:53:26.287Z,72.60
2018-12-19T02:55:57.745Z,74.20
2018-12-19T02:58:27.857Z,78.10
2018-12-19T03:00:57.798Z,80.03
2018-12-19T03:03:28.208Z,75.83
2018-12-19T03:05:58.379Z,75.83
2018-12-19T03:08:28.772Z,74.80
2018-12-19T03:10:58.994Z,79.57
2018-12-19T03:13:29.967Z,76.27
2018-12-19T03:16:00.818Z,74.53
2018-12-19T03:18:30.852Z,73.27
2018-12-19T03:21:00.864Z,71.83
2018-12-19T03:23:30.889Z,77.90
2018-12-19T03:26:01.334Z,74.03
2018-12-19T03:28:31.657Z,73.50
2018-12-19T03:31:02.013Z,76.23
2018-12-19T03:33:35.389Z,78.13
2018-12-19T03:36:06.099Z,77.77
2018-12-19T03:38:36.767Z,77.33
2018-12-19T03:41:07.591Z,78.63
2018-12-19T03:43:37.755Z,79.00
2018-12-19T03:46:09.130Z,76.60
2018-12-19T03:48:44.388Z,78.93
2018-12-19T03:51:15.604Z,78.30
2018-12-19T03:53:46.000Z,79.27
2018-12-19T03:56:16.637Z,74.93
2018-12-19T03:58:46.732Z,79.50
2018-12-19T04:01:17.033Z,75.30
2018-12-19T04:03:47.766Z,75.97
2018-12-19T04:06:17.821Z,79.50
2018-12-19T04:08:48.547Z,77.43
2018-12-19T04:11:18.526Z,77.83
2018-12-19T04:13:49.246Z,78.40
2018-12-19T04:16:19.430Z,72.37
2018-12-19T04:18:49.752Z,76.17
2018-12-19T04:21:19.710Z,74.20
2018-12-19T04:23:49.813Z,71.40
2018-12-19T04:26:20.134Z,74.17
2018-12-19T04:28:50.487Z,77.33
2018-12-19T04:31:20.873Z,78.27
2018-12-19T04:33:51.529Z,77.43
2018-12-19T04:36:21.769Z,73.17
2018-12-19T04:38:52.050Z,75.10
2018-12-19T04:41:22.403Z,72.03
2018-12-19T04:43:53.066Z,74.87
2018-12-19T04:46:23.740Z,77.00
2018-12-19T04:48:54.102Z,75.43
2018-12-19T04:51:24.466Z,75.03
2018-12-19T04:53:55.080Z,73.17
2018-12-19T04:56:25.257Z,71.73
2018-12-19T04:58:55.557Z,74.03
2018-12-19T05:01:25.783Z,75.27
2018-12-19T05:03:55.881Z,78.33
2018-12-19T05:06:26.139Z,78.03
2018-12-19T05:08:56.453Z,77.83
2018-12-19T05:11:26.910Z,76.50
2018-12-19T05:13:57.704Z,78.90
2018-12-19T05:16:28.240Z,76.67
2018-12-19T05:18:59.172Z,74.67
2018-12-19T05:21:30.536Z,79.03
2018-12-19T05:24:15.881Z,75.87
2018-12-19T05:26:46.475Z,72.93
2018-12-19T05:29:16.809Z,74.80
2018-12-19T05:31:47.565Z,76.03
2018-12-19T05:34:18.039Z,74.27
2018-12-19T05:36:48.098Z,79.80
2018-12-19T05:39:18.568Z,80.03
2018-12-19T05:41:48.804Z,77.27
2018-12-19T05:44:19.719Z,76.47
2018-12-19T05:46:49.830Z,76.43
2018-12-19T05:49:19.994Z,76.97
2018-12-19T05:51:50.239Z,80.17
2018-12-19T05:54:22.018Z,79.33
2018-12-19T05:56:52.561Z,78.87
2018-12-19T05:59:22.818Z,77.53
2018-12-19T06:01:53.137Z,77.83
2018-12-19T06:04:25.625Z,78.27
2018-12-19T06:06:56.100Z,77.13
2018-12-19T06:10:29.535Z,78.13
2018-12-19T06:13:00.109Z,76.00
2018-12-19T06:15:30.253Z,77.90
2018-12-19T06:18:00.381Z,77.43
2018-12-19T06:20:30.895Z,81.57
2018-12-19T06:23:01.513Z,87.33
2018-12-19T06:25:31.708Z,77.07
2018-12-19T06:28:17.485Z,74.90
2018-12-19T06:30:47.694Z,75.63
2018-12-19T06:33:17.980Z,75.73
2018-12-19T06:35:48.346Z,76.50
2018-12-19T06:38:18.574Z,75.97
2018-12-19T06:40:48.906Z,72.50
2018-12-19T06:43:19.274Z,72.97
2018-12-19T06:45:49.568Z,76.67
2018-12-19T06:48:19.726Z,77.90
2018-12-19T06:50:49.866Z,76.93
2018-12-19T06:53:20.262Z,78.43
2018-12-19T06:55:50.731Z,78.50
2018-12-19T06:58:21.436Z,75.07
2018-12-19T07:00:51.691Z,73.60
2018-12-19T07:06:05.777Z,74.67
2018-12-19T07:08:36.710Z,71.77
2018-12-19T07:11:07.050Z,70.73
2018-12-19T07:13:37.293Z,76.83
2018-12-19T07:16:08.121Z,72.73
2018-12-19T07:18:38.344Z,72.20
2018-12-19T07:21:08.714Z,73.93
2018-12-19T07:23:39.072Z,71.07
2018-12-19T07:26:09.252Z,72.07
2018-12-19T07:28:39.430Z,69.80
2018-12-19T07:31:09.719Z,69.67
2018-12-19T07:33:39.984Z,70.47
2018-12-19T07:36:10.247Z,68.57
2018-12-19T07:38:41.111Z,70.90
2018-12-19T07:41:12.975Z,67.27
2018-12-19T07:43:43.775Z,70.70
2018-12-19T07:46:19.801Z,72.33
2018-12-19T07:48:47.721Z,70.27
2018-12-19T07:51:18.436Z,68.90
2018-12-19T07:53:49.349Z,71.30
2018-12-19T07:56:19.662Z,68.40
2018-12-19T07:58:49.829Z,70.37
2018-12-19T08:01:19.760Z,68.87
2018-12-19T08:03:50.308Z,67.03
2018-12-19T08:06:20.682Z,68.37
2018-12-19T08:08:51.281Z,66.20
2018-12-19T08:11:21.621Z,63.40
2018-12-19T08:13:51.571Z,65.37
2018-12-19T08:16:21.871Z,69.20
2018-12-19T08:18:52.147Z,69.40
2018-12-19T08:21:22.391Z,70.33
2018-12-19T08:23:53.381Z,70.00
2018-12-19T08:26:23.431Z,71.13
2018-12-19T08:28:53.635Z,66.40
2018-12-19T08:31:24.256Z,67.60
2018-12-19T08:33:54.526Z,68.83
2018-12-19T08:36:24.947Z,68.43
2018-12-19T08:38:55.204Z,67.53
2018-12-19T08:41:26.014Z,68.27
2018-12-19T08:43:56.312Z,64.87
2018-12-19T08:46:26.636Z,68.37
2018-12-19T08:48:56.888Z,68.83
2018-12-19T08:51:27.235Z,70.83
2018-12-19T08:53:57.717Z,70.13
2018-12-19T08:56:27.761Z,71.97
2018-12-19T08:58:57.963Z,66.47
2018-12-19T09:01:28.378Z,67.13
2018-12-19T09:03:58.939Z,72.00
2018-12-19T09:06:29.013Z,68.37
2018-12-19T09:08:59.401Z,69.83
2018-12-19T09:11:30.798Z,67.20
2018-12-19T09:14:01.393Z,67.83
2018-12-19T09:16:31.834Z,67.70
2018-12-19T09:19:02.169Z,64.27
2018-12-19T09:21:32.686Z,70.27
2018-12-19T09:24:02.888Z,69.10
2018-12-19T09:26:34.430Z,67.63
2018-12-19T09:29:04.939Z,66.73
2018-12-19T09:31:35.424Z,70.07
2018-12-19T09:34:06.120Z,72.20
2018-12-19T09:36:36.562Z,69.90
2018-12-19T09:39:07.466Z,68.53
2018-12-19T09:41:37.748Z,70.70
2018-12-19T09:44:08.706Z,71.77
2018-12-19T09:46:38.961Z,69.13
2018-12-19T09:49:12.327Z,71.03
2018-12-19T09:51:42.034Z,69.47
2018-12-19T09:54:13.375Z,69.80
2018-12-19T09:56:44.223Z,68.47
2018-12-19T09:59:14.849Z,68.13
2018-12-19T10:01:44.989Z,66.53
2018-12-19T10:04:30.946Z,67.17
2018-12-19T10:07:01.020Z,64.80
2018-12-19T10:09:31.568Z,61.90
2018-12-19T10:12:01.912Z,67.87
2018-12-19T10:14:32.135Z,65.70
2018-12-19T10:17:02.582Z,64.33
2018-12-19T10:19:32.993Z,62.17
2018-12-19T10:22:03.603Z,61.47
2018-12-19T10:24:38.971Z,57.83
2018-12-19T10:27:11.216Z,60.50
2018-12-19T10:29:41.881Z,62.17
2018-12-19T10:32:12.880Z,59.80
2018-12-19T10:34:44.042Z,60.37
2018-12-19T10:37:14.788Z,59.77
2018-12-19T10:39:45.043Z,57.73
2018-12-19T10:42:17.087Z,56.57
2018-12-19T10:44:48.162Z,57.10
2018-12-19T10:47:18.561Z,58.13
2018-12-19T10:49:48.714Z,57.57
2018-12-19T10:52:19.201Z,56.43
2018-12-19T10:54:49.213Z,57.73
2018-12-19T10:57:19.754Z,57.80
2018-12-19T10:59:49.976Z,53.43
2018-12-19T11:02:27.768Z,55.57
2018-12-19T11:04:58.057Z,50.17
2018-12-19T11:07:28.109Z,49.63
2018-12-19T11:09:58.273Z,49.73
2018-12-19T11:12:28.957Z,50.33
2018-12-19T11:15:00.150Z,49.97
2018-12-19T11:17:30.546Z,51.27
2018-12-19T11:20:01.189Z,48.73
2018-12-19T11:22:31.730Z,50.37
2018-12-19T11:25:01.899Z,48.03
2018-12-19T11:27:32.270Z,48.43
2018-12-19T11:30:02.684Z,46.57
2018-12-19T11:32:33.226Z,44.20
2018-12-19T11:35:03.755Z,45.37
2018-12-19T11:37:34.240Z,45.87
2018-12-19T11:40:05.467Z,38.33
2018-12-19T11:42:36.573Z,41.23
2018-12-19T11:45:07.435Z,41.83
2018-12-19T11:47:37.510Z,39.80
2018-12-19T11:50:09.261Z,39.87
2018-12-19T11:52:39.411Z,36.70
2018-12-19T11:55:09.780Z,38.97
2018-12-19T11:57:39.873Z,36.60
2018-12-19T12:00:11.958Z,36.27
2018-12-19T12:02:42.124Z,35.93
2018-12-19T12:05:12.937Z,35.13
2018-12-19T12:07:45.754Z,34.20
2018-12-19T12:10:16.175Z,32.70
2018-12-19T12:12:47.514Z,32.03
2018-12-19T12:15:17.778Z,33.13
2018-12-19T12:17:47.962Z,32.43
2018-12-19T12:20:17.975Z,32.73
2018-12-19T12:22:48.197Z,33.37
2018-12-19T12:25:18.509Z,31.27
2018-12-19T12:27:48.684Z,31.40
2018-12-19T12:30:18.771Z,32.57
2018-12-19T12:32:49.128Z,32.80
2018-12-19T12:35:19.490Z,31.80
2018-12-19T12:37:49.763Z,33.00
2018-12-19T12:40:20.273Z,33.17
2018-12-19T12:42:50.945Z,32.00
2018-12-19T12:45:21.189Z,27.10
2018-12-19T12:47:51.836Z,31.77
2018-12-19T12:50:22.631Z,31.17
2018-12-19T12:55:28.716Z,27.93
2018-12-19T12:57:59.720Z,30.67
2018-12-19T13:00:30.013Z,29.83
2018-12-19T13:03:00.882Z,27.03
2018-12-19T13:05:31.837Z,27.57
2018-12-19T13:08:04.054Z,27.77
2018-12-19T13:10:36.396Z,25.30
2018-12-19T13:13:08.722Z,26.73
2018-12-19T13:15:44.011Z,27.40
2018-12-19T13:18:15.309Z,27.93
2018-12-19T13:20:46.259Z,25.60
2018-12-19T13:23:16.866Z,24.23
2018-12-19T13:25:47.103Z,24.13
2018-12-19T13:28:17.433Z,22.57
2018-12-19T13:30:48.428Z,20.63
2018-12-19T13:33:18.994Z,20.63
2018-12-19T13:35:49.381Z,25.00
2018-12-19T13:38:20.510Z,24.53
2018-12-19T13:40:50.993Z,24.10
2018-12-19T13:43:22.619Z,24.60
2018-12-19T13:45:52.976Z,27.67
2018-12-19T13:48:23.454Z,29.07
2018-12-19T13:50:53.691Z,28.23
2018-12-19T13:53:24.752Z,30.63
2018-12-19T13:55:55.349Z,33.03
2018-12-19T13:58:26.484Z,31.67
2018-12-19T14:00:56.802Z,32.07
2018-12-19T14:03:27.681Z,32.47
2018-12-19T14:05:58.221Z,33.57
2018-12-19T14:08:28.736Z,31.57
2018-12-19T14:10:59.107Z,33.03
2018-12-19T14:13:44.639Z,29.53
2018-12-19T14:16:15.400Z,33.27
2018-12-19T14:18:45.599Z,31.73
2018-12-19T14:21:17.452Z,28.77
2018-12-19T14:23:48.150Z,27.63
2018-12-19T14:26:18.402Z,28.37
2018-12-19T14:28:48.770Z,28.60
2018-12-19T14:31:19.150Z,30.77
2018-12-19T14:33:49.285Z,28.73
2018-12-19T14:36:19.661Z,30.17
2018-12-19T14:38:50.271Z,29.97
2018-12-19T14:41:20.554Z,27.17
2018-12-19T14:43:51.980Z,30.23
2018-12-19T14:46:23.003Z,30.30
2018-12-19T14:48:53.375Z,27.47
2018-12-19T14:51:24.389Z,29.50
2018-12-19T14:53:54.828Z,29.67
2018-12-19T14:56:25.107Z,31.63
2018-12-19T14:58:55.918Z,28.73
2018-12-19T15:01:26.598Z,29.77
2018-12-19T15:03:58.015Z,29.53
2018-12-19T15:06:30.167Z,31.23
2018-12-19T15:09:00.533Z,32.63
2018-12-19T15:11:30.894Z,31.40
2018-12-19T15:14:00.814Z,31.30
2018-12-19T15:16:31.329Z,32.50
2018-12-19T15:19:01.632Z,34.83
2018-12-19T15:21:31.987Z,35.37
2018-12-19T15:24:02.236Z,37.30
2018-12-19T15:26:34.536Z,32.57
2018-12-19T15:29:19.402Z,36.53
2018-12-19T15:31:49.367Z,38.17
2018-12-19T15:34:20.780Z,38.90
2018-12-19T15:36:50.784Z,40.83
2018-12-19T15:39:21.539Z,39.87
2018-12-19T15:41:51.805Z,44.03
2018-12-19T15:44:21.814Z,41.40
2018-12-19T15:46:52.299Z,40.80
2018-12-19T15:49:22.821Z,45.70
2018-12-19T15:51:53.140Z,41.43
2018-12-19T15:54:23.735Z,46.33
2018-12-19T15:56:53.895Z,48.90
2018-12-19T15:59:24.270Z,49.03
2018-12-19T16:01:55.734Z,52.57
2018-12-19T16:04:25.880Z,50.60
2018-12-19T16:06:56.638Z,47.90
2018-12-19T16:09:26.830Z,49.13
2018-12-19T16:11:57.876Z,48.13
2018-12-19T16:14:28.542Z,49.23
2018-12-19T16:16:58.616Z,49.20
2018-12-19T16:19:28.913Z,47.23
2018-12-19T16:21:59.205Z,49.50
2018-12-19T16:24:29.405Z,45.67
2018-12-19T16:26:59.441Z,47.30
2018-12-19T16:29:29.688Z,47.63
2018-12-19T16:31:59.851Z,47.53
2018-12-19T16:34:30.081Z,48.17
2018-12-19T16:37:00.288Z,47.40
2018-12-19T16:39:31.120Z,47.03
2018-12-19T16:42:01.175Z,46.77
2018-12-19T16:44:32.553Z,46.43
2018-12-19T16:47:02.630Z,47.10
2018-12-19T16:49:33.408Z,48.10
2018-12-19T16:52:03.735Z,45.80
2018-12-19T16:54:34.620Z,48.33
2018-12-19T16:57:04.855Z,45.43
2018-12-19T16:59:35.041Z,46.10
2018-12-19T17:02:05.708Z,46.60
2018-12-19T17:04:35.640Z,47.43
2018-12-19T17:07:06.722Z,45.60
2018-12-19T17:09:37.153Z,46.23
2018-12-19T17:12:07.808Z,41.07
2018-12-19T17:14:38.070Z,45.57
2018-12-19T17:17:08.442Z,43.87
2018-12-19T17:19:39.840Z,42.30
2018-12-19T17:22:15.168Z,41.23
2018-12-19T17:24:45.353Z,42.33
2018-12-19T17:27:16.037Z,41.70
2018-12-19T17:29:46.498Z,39.77
2018-12-19T17:32:20.752Z,31.03
2018-12-19T17:34:51.550Z,37.07
2018-12-19T17:37:22.953Z,39.07
2018-12-19T17:39:53.616Z,38.57
2018-12-19T17:42:24.321Z,38.17
2018-12-19T17:44:54.972Z,33.83
2018-12-19T17:47:25.638Z,39.57
2018-12-19T17:49:56.255Z,37.90
2018-12-19T17:52:27.019Z,39.27
2018-12-19T17:54:57.914Z,37.50
2018-12-19T17:57:28.567Z,39.60
2018-12-19T17:59:59.196Z,36.83
2018-12-19T18:02:30.044Z,35.37
2018-12-19T18:05:00.748Z,34.37
2018-12-19T18:07:31.687Z,37.60
2018-12-19T18:10:01.829Z,38.20
2018-12-19T18:12:32.101Z,37.33
2018-12-19T18:15:24.677Z,38.57
2018-12-19T18:18:02.174Z,37.97
2018-12-19T18:20:32.600Z,36.90
2018-12-19T18:23:03.024Z,38.10
2018-12-19T18:25:34.329Z,33.43
2018-12-19T18:28:05.136Z,39.10
2018-12-19T18:30:35.147Z,39.13
2018-12-19T18:33:07.080Z,39.00
2018-12-19T18:35:37.375Z,33.87
2018-12-19T18:38:07.725Z,33.00
2018-12-19T18:40:37.983Z,36.70
2018-12-19T18:43:12.887Z,33.30
2018-12-19T18:45:41.420Z,31.97
2018-12-19T18:48:12.166Z,31.83
2018-12-19T18:50:42.361Z,32.63
2018-12-19T18:53:13.270Z,31.43
2018-12-19T18:55:44.101Z,33.03
2018-12-19T18:58:14.736Z,33.87
2018-12-19T19:00:47.324Z,36.23
2018-12-19T19:03:18.180Z,35.80
2018-12-19T19:05:49.109Z,35.90
2018-12-19T19:08:20.061Z,34.73
2018-12-19T19:11:05.987Z,35.73
2018-12-19T19:13:36.956Z,35.33
2018-12-19T19:16:07.700Z,37.47
2018-12-19T19:18:38.228Z,39.27
2018-12-19T19:21:08.871Z,35.10
2018-12-19T19:23:39.280Z,38.23
2018-12-19T19:26:09.699Z,40.33
2018-12-19T19:28:40.001Z,39.80
2018-12-19T19:31:11.122Z,37.60
2018-12-19T19:33:48.231Z,38.67
2018-12-19T19:36:18.774Z,41.00
2018-12-19T19:38:50.210Z,38.27
2018-12-19T19:41:21.046Z,40.70
2018-12-19T19:43:56.587Z,32.03
2018-12-19T19:46:27.148Z,39.37
2018-12-19T19:48:58.813Z,40.80
2018-12-19T19:51:33.099Z,37.47
2018-12-19T19:54:04.295Z,38.80
2018-12-19T19:56:34.888Z,38.13
2018-12-19T19:59:06.025Z,36.93
2018-12-19T20:01:36.570Z,39.03
2018-12-19T20:04:08.960Z,36.93
2018-12-19T20:06:39.951Z,37.80
2018-12-19T20:09:12.449Z,38.37
2018-12-19T20:11:45.580Z,41.80
2018-12-19T20:14:17.260Z,36.63
2018-12-19T20:16:53.055Z,38.87
2018-12-19T20:19:23.824Z,38.63
2018-12-19T20:21:54.314Z,41.73
2018-12-19T20:24:24.885Z,39.73
2018-12-19T20:26:55.685Z,38.17
2018-12-19T20:29:26.904Z,39.37
2018-12-19T20:31:57.679Z,40.33
2018-12-19T20:34:27.928Z,40.13
2018-12-19T20:36:58.631Z,37.70
2018-12-19T20:39:29.430Z,36.20
2018-12-19T20:42:00.025Z,37.10
2018-12-19T20:44:30.736Z,39.53
2018-12-19T20:47:01.383Z,40.53
2018-12-19T20:49:31.976Z,36.13
2018-12-19T20:52:03.693Z,39.03
2018-12-19T20:54:39.363Z,40.30
2018-12-19T20:57:10.157Z,37.90
2018-12-19T20:59:40.912Z,34.00
2018-12-19T21:02:11.763Z,37.67
2018-12-19T21:04:42.954Z,39.17
2018-12-19T21:07:13.886Z,33.40
2018-12-19T21:09:44.571Z,38.63
2018-12-19T21:12:16.234Z,38.57
2018-12-19T21:14:46.876Z,36.33
2018-12-19T21:17:23.744Z,37.87
2018-12-19T21:19:54.879Z,36.93
2018-12-19T21:22:25.723Z,38.17
2018-12-19T21:24:55.934Z,38.13
2018-12-19T21:27:26.368Z,37.27
2018-12-19T21:29:56.481Z,38.20
2018-12-19T21:32:27.005Z,38.00
2018-12-19T21:36:27.036Z,39.43
2018-12-19T21:38:57.463Z,38.20
2018-12-19T21:41:27.876Z,36.43
2018-12-19T21:43:58.707Z,35.60
2018-12-19T21:46:29.449Z,38.47
2018-12-19T21:48:59.652Z,39.20
2018-12-19T21:51:29.907Z,39.00
2018-12-19T21:53:59.992Z,33.60
2018-12-19T21:56:31.001Z,36.43
2018-12-19T21:59:01.171Z,35.20
2018-12-19T22:01:31.505Z,34.90
2018-12-19T22:04:01.834Z,36.00
2018-12-19T22:06:32.342Z,33.07
2018-12-19T22:09:02.807Z,36.37
2018-12-19T22:11:34.390Z,36.50
2018-12-19T22:14:05.717Z,38.37
2018-12-19T22:16:41.031Z,38.33
2018-12-19T22:19:11.483Z,37.97
2018-12-19T22:21:41.934Z,37.17
2018-12-19T22:24:12.573Z,35.87
2018-12-19T22:26:43.009Z,38.10
2018-12-19T22:29:13.470Z,36.57
2018-12-19T22:31:44.244Z,32.47
2018-12-19T22:34:15.086Z,35.30
2018-12-19T22:36:45.306Z,35.63
2018-12-19T22:39:18.383Z,35.60
2018-12-19T22:41:48.905Z,38.87
2018-12-19T22:44:19.837Z,37.77
2018-12-19T22:46:50.443Z,37.50
2018-12-19T22:49:20.641Z,37.23
2018-12-19T22:51:51.301Z,36.17
2018-12-19T22:54:26.875Z,38.10
2018-12-19T22:56:57.188Z,36.53
2018-12-19T22:59:27.335Z,36.90
2018-12-19T23:02:02.658Z,37.73
2018-12-19T23:04:33.016Z,37.27
2018-12-19T23:07:03.544Z,31.03
2018-12-19T23:09:33.991Z,38.90
2018-12-19T23:12:04.460Z,36.93
2018-12-19T23:14:35.147Z,39.30
2018-12-19T23:17:16.360Z,37.07
2018-12-19T23:19:52.167Z,37.97
2018-12-19T23:22:28.320Z,38.80
2018-12-19T23:25:05.483Z,36.70
2018-12-19T23:27:37.584Z,36.67
2018-12-19T23:30:10.352Z,37.63
2018-12-19T23:32:41.279Z,37.40
2018-12-19T23:35:12.722Z,34.40
2018-12-19T23:37:42.788Z,33.30
2018-12-19T23:40:13.369Z,38.20
2018-12-19T23:42:43.430Z,37.17
2018-12-19T23:45:14.814Z,36.47
2018-12-19T23:47:45.055Z,37.00
2018-12-19T23:50:15.375Z,39.63
2018-12-19T23:52:45.515Z,38.70
2018-12-19T23:55:15.653Z,38.10
2018-12-19T23:57:45.925Z,34.73
